createdAt,value
2023-03-19T00:01:47.768Z,75.23
2023-03-19T00:04:16.484Z,75.02
2023-03-19T00:06:44.776Z,75.54
2023-03-19T00:09:12.451Z,75.19
2023-03-19T00:11:40.088Z,75.49
2023-03-19T00:14:07.834Z,75.66
2023-03-19T00:16:35.438Z,75.62
2023-03-19T00:19:04.434Z,75.58
2023-03-19T00:21:32.446Z,75.50
2023-03-19T00:24:02.471Z,75.34
2023-03-19T00:26:30.071Z,75.46
2023-03-19T00:28:57.770Z,75.55
2023-03-19T00:31:25.897Z,75.24
2023-03-19T00:33:53.515Z,75.23
2023-03-19T00:36:21.876Z,75.55
2023-03-19T00:38:49.451Z,75.38
2023-03-19T00:41:18.388Z,75.91
2023-03-19T00:43:47.365Z,75.26
2023-03-19T00:46:15.119Z,75.43
2023-03-19T00:48:42.788Z,75.25
2023-03-19T00:51:10.433Z,75.26
2023-03-19T00:53:38.008Z,75.34
2023-03-19T00:56:06.201Z,75.17
2023-03-19T00:58:33.846Z,74.92
2023-03-19T01:01:02.421Z,74.87
2023-03-19T01:03:30.011Z,74.85
2023-03-19T01:05:58.428Z,75.00
2023-03-19T01:08:26.718Z,74.60
2023-03-19T01:10:54.338Z,74.51
2023-03-19T01:13:21.974Z,74.41
2023-03-19T01:15:49.551Z,73.77
2023-03-19T01:18:17.495Z,74.18
2023-03-19T01:20:45.123Z,74.10
2023-03-19T01:23:12.713Z,74.04
2023-03-19T01:25:40.394Z,73.52
2023-03-19T01:28:09.094Z,74.32
2023-03-19T01:30:36.655Z,74.02
2023-03-19T01:33:04.325Z,74.04
2023-03-19T01:35:32.026Z,74.17
2023-03-19T01:37:59.614Z,74.22
2023-03-19T01:40:27.616Z,73.78
2023-03-19T01:42:55.262Z,73.87
2023-03-19T01:45:22.820Z,74.06
2023-03-19T01:47:50.412Z,73.89
2023-03-19T01:50:18.019Z,73.51
2023-03-19T01:52:45.976Z,73.78
2023-03-19T01:55:13.545Z,73.95
2023-03-19T01:57:41.333Z,73.90
2023-03-19T02:00:09.016Z,74.20
2023-03-19T02:02:36.592Z,73.77
2023-03-19T02:05:05.070Z,74.10
2023-03-19T02:07:32.642Z,73.98
2023-03-19T02:10:01.933Z,74.57
2023-03-19T02:12:29.603Z,74.95
2023-03-19T02:14:57.158Z,74.69
2023-03-19T02:17:25.085Z,75.26
2023-03-19T02:19:52.747Z,75.35
2023-03-19T02:22:20.673Z,75.71
2023-03-19T02:24:48.235Z,74.89
2023-03-19T02:27:15.846Z,75.07
2023-03-19T02:29:43.766Z,75.23
2023-03-19T02:32:11.701Z,75.08
2023-03-19T02:34:39.323Z,74.34
2023-03-19T02:37:06.880Z,74.75
2023-03-19T02:39:34.474Z,74.52
2023-03-19T02:42:02.547Z,74.40
2023-03-19T02:44:30.134Z,74.26
2023-03-19T02:46:57.774Z,73.87
2023-03-19T02:49:25.420Z,74.48
2023-03-19T02:51:52.948Z,74.20
2023-03-19T02:54:21.386Z,74.04
2023-03-19T02:56:49.241Z,73.69
2023-03-19T02:59:16.979Z,73.94
2023-03-19T03:01:44.559Z,74.27
2023-03-19T03:04:12.248Z,73.87
2023-03-19T03:06:40.232Z,73.90
2023-03-19T03:09:07.797Z,73.34
2023-03-19T03:11:35.385Z,73.61
2023-03-19T03:14:02.939Z,73.52
2023-03-19T03:16:30.987Z,74.04
2023-03-19T03:18:59.027Z,74.11
2023-03-19T03:21:26.563Z,74.09
2023-03-19T03:23:54.159Z,74.28
2023-03-19T03:26:22.066Z,74.22
2023-03-19T03:28:49.611Z,73.75
2023-03-19T03:31:17.539Z,73.89
2023-03-19T03:33:45.283Z,74.24
2023-03-19T03:36:13.429Z,74.09
2023-03-19T03:38:41.370Z,74.07
2023-03-19T03:41:09.045Z,73.52
2023-03-19T03:43:37.038Z,73.84
2023-03-19T03:46:04.651Z,74.05
2023-03-19T03:48:32.309Z,73.83
2023-03-19T03:50:59.868Z,73.41
2023-03-19T03:53:27.464Z,73.21
2023-03-19T03:55:55.439Z,73.14
2023-03-19T03:58:24.183Z,73.21
2023-03-19T04:00:52.770Z,73.12
2023-03-19T04:03:20.723Z,72.88
2023-03-19T04:05:48.323Z,73.43
2023-03-19T04:08:16.039Z,73.03
2023-03-19T04:10:43.909Z,73.37
2023-03-19T04:13:11.668Z,73.00
2023-03-19T04:15:39.552Z,73.20
2023-03-19T04:18:07.184Z,72.99
2023-03-19T04:20:35.441Z,72.98
2023-03-19T04:23:03.467Z,72.54
2023-03-19T04:25:31.151Z,72.43
2023-03-19T04:27:58.726Z,72.59
2023-03-19T04:30:26.310Z,72.54
2023-03-19T04:32:54.348Z,72.46
2023-03-19T04:35:22.982Z,72.38
2023-03-19T04:37:50.758Z,72.82
2023-03-19T04:40:18.598Z,72.40
2023-03-19T04:42:46.214Z,72.18
2023-03-19T04:45:14.369Z,72.45
2023-03-19T04:47:42.718Z,72.30
2023-03-19T04:50:10.654Z,72.81
2023-03-19T04:52:39.453Z,72.26
2023-03-19T04:55:07.071Z,72.22
2023-03-19T04:57:34.838Z,72.38
2023-03-19T05:00:02.438Z,72.03
2023-03-19T05:02:30.220Z,72.37
2023-03-19T05:04:58.194Z,72.27
2023-03-19T05:07:26.499Z,72.76
2023-03-19T05:09:54.468Z,72.17
2023-03-19T05:12:22.006Z,72.76
2023-03-19T05:14:49.767Z,72.12
2023-03-19T05:17:17.489Z,72.42
2023-03-19T05:19:45.020Z,72.13
2023-03-19T05:22:12.944Z,72.55
2023-03-19T05:24:40.562Z,73.16
2023-03-19T05:27:09.535Z,72.83
2023-03-19T05:29:39.293Z,72.85
2023-03-19T05:32:08.417Z,72.66
2023-03-19T05:34:36.371Z,72.65
2023-03-19T05:37:04.046Z,72.37
2023-03-19T05:39:31.703Z,72.55
2023-03-19T05:41:59.261Z,72.71
2023-03-19T05:44:26.808Z,72.67
2023-03-19T05:46:54.908Z,72.15
2023-03-19T05:49:22.468Z,72.39
2023-03-19T05:51:50.226Z,72.23
2023-03-19T05:54:17.878Z,72.27
2023-03-19T05:56:45.491Z,72.25
2023-03-19T05:59:13.122Z,72.93
2023-03-19T06:01:40.979Z,72.92
2023-03-19T06:04:08.798Z,72.45
2023-03-19T06:06:36.644Z,72.55
2023-03-19T06:09:04.623Z,72.86
2023-03-19T06:11:32.724Z,73.30
2023-03-19T06:14:00.313Z,72.86
2023-03-19T06:16:28.462Z,73.47
2023-03-19T06:18:56.324Z,72.75
2023-03-19T06:21:25.990Z,72.45
2023-03-19T06:23:53.942Z,72.39
2023-03-19T06:26:21.530Z,72.84
2023-03-19T06:28:49.363Z,72.16
2023-03-19T06:31:17.545Z,71.91
2023-03-19T06:33:45.173Z,71.91
2023-03-19T06:36:13.172Z,71.98
2023-03-19T06:38:40.844Z,71.72
2023-03-19T06:41:08.613Z,71.75
2023-03-19T06:43:37.354Z,71.25
2023-03-19T06:46:05.103Z,71.11
2023-03-19T06:48:32.711Z,70.66
2023-03-19T06:51:00.879Z,70.61
2023-03-19T06:53:29.607Z,70.76
2023-03-19T06:55:57.162Z,70.68
2023-03-19T06:58:24.812Z,70.15
2023-03-19T07:00:52.835Z,70.38
2023-03-19T07:03:20.790Z,69.83
2023-03-19T07:05:48.394Z,69.69
2023-03-19T07:08:16.047Z,70.52
2023-03-19T07:10:43.672Z,70.64
2023-03-19T07:13:13.086Z,70.75
2023-03-19T07:15:41.157Z,70.72
2023-03-19T07:18:08.925Z,70.98
2023-03-19T07:20:36.911Z,70.84
2023-03-19T07:23:04.817Z,71.07
2023-03-19T07:25:32.803Z,71.08
2023-03-19T07:28:00.609Z,70.81
2023-03-19T07:30:28.577Z,70.62
2023-03-19T07:32:56.646Z,70.97
2023-03-19T07:35:24.479Z,70.94
2023-03-19T07:37:52.932Z,70.55
2023-03-19T07:40:20.708Z,70.37
2023-03-19T07:42:48.642Z,70.41
2023-03-19T07:45:16.324Z,70.40
2023-03-19T07:47:44.019Z,69.62
2023-03-19T07:50:11.694Z,69.87
2023-03-19T07:52:39.489Z,69.76
2023-03-19T07:55:07.328Z,69.23
2023-03-19T07:57:34.950Z,69.20
2023-03-19T08:00:03.343Z,68.54
2023-03-19T08:02:31.693Z,68.25
2023-03-19T08:05:02.238Z,68.50
2023-03-19T08:07:30.276Z,68.49
2023-03-19T08:09:58.483Z,67.71
2023-03-19T08:12:26.275Z,68.12
2023-03-19T08:14:54.340Z,68.15
2023-03-19T08:17:22.209Z,67.92
2023-03-19T08:19:49.955Z,68.12
2023-03-19T08:22:17.596Z,67.81
2023-03-19T08:24:45.388Z,68.25
2023-03-19T08:27:13.458Z,68.29
2023-03-19T08:29:41.298Z,68.42
2023-03-19T08:32:09.095Z,68.17
2023-03-19T08:34:36.752Z,68.53
2023-03-19T08:37:04.559Z,68.03
2023-03-19T08:39:32.341Z,68.60
2023-03-19T08:42:00.042Z,68.68
2023-03-19T08:44:29.117Z,68.58
2023-03-19T08:46:56.799Z,69.02
2023-03-19T08:49:24.456Z,68.78
2023-03-19T08:51:52.508Z,68.49
2023-03-19T08:54:22.823Z,68.98
2023-03-19T08:56:51.100Z,69.39
2023-03-19T08:59:19.124Z,69.52
2023-03-19T09:01:47.096Z,69.33
2023-03-19T09:04:14.879Z,69.01
2023-03-19T09:06:43.277Z,68.68
2023-03-19T09:09:11.216Z,69.44
2023-03-19T09:11:38.979Z,68.94
2023-03-19T09:14:07.497Z,69.10
2023-03-19T09:16:35.630Z,68.63
2023-03-19T09:19:03.495Z,67.95
2023-03-19T09:21:31.833Z,67.48
2023-03-19T09:23:59.534Z,67.55
2023-03-19T09:26:27.325Z,66.83
2023-03-19T09:28:55.915Z,66.08
2023-03-19T09:31:23.928Z,65.64
2023-03-19T09:33:52.071Z,65.14
2023-03-19T09:36:20.032Z,65.34
2023-03-19T09:38:48.332Z,64.96
2023-03-19T09:41:16.440Z,65.52
2023-03-19T09:43:44.227Z,65.32
2023-03-19T09:46:12.239Z,65.71
2023-03-19T09:48:40.116Z,65.58
2023-03-19T09:51:07.974Z,66.69
2023-03-19T09:53:36.699Z,66.93
2023-03-19T09:56:04.464Z,66.86
2023-03-19T09:58:32.367Z,66.25
2023-03-19T10:01:00.379Z,66.35
2023-03-19T10:03:28.083Z,65.87
2023-03-19T10:05:56.077Z,65.55
2023-03-19T10:08:23.924Z,63.96
2023-03-19T10:10:51.999Z,62.77
2023-03-19T10:13:20.831Z,61.36
2023-03-19T10:15:49.281Z,60.78
2023-03-19T10:18:17.582Z,61.22
2023-03-19T10:20:45.720Z,60.90
2023-03-19T10:23:13.705Z,59.14
2023-03-19T10:25:41.775Z,56.85
2023-03-19T10:28:09.820Z,55.08
2023-03-19T10:30:37.935Z,54.14
2023-03-19T10:33:05.700Z,55.49
2023-03-19T10:35:38.915Z,55.54
2023-03-19T10:38:06.904Z,56.65
2023-03-19T10:40:34.719Z,57.54
2023-03-19T10:43:03.140Z,58.17
2023-03-19T10:45:31.103Z,58.96
2023-03-19T10:47:59.119Z,59.72
2023-03-19T10:50:27.275Z,60.62
2023-03-19T10:52:55.069Z,60.59
2023-03-19T10:55:23.430Z,59.97
2023-03-19T10:57:51.650Z,59.88
2023-03-19T11:00:19.961Z,58.70
2023-03-19T11:02:47.829Z,57.96
2023-03-19T11:05:16.037Z,55.90
2023-03-19T11:07:44.292Z,54.87
2023-03-19T11:10:12.552Z,54.52
2023-03-19T11:12:40.567Z,52.52
2023-03-19T11:15:08.744Z,52.27
2023-03-19T11:17:36.568Z,51.06
2023-03-19T11:20:04.890Z,51.15
2023-03-19T11:22:33.279Z,51.44
2023-03-19T11:25:01.291Z,50.84
2023-03-19T11:27:30.091Z,51.29
2023-03-19T11:29:58.045Z,52.11
2023-03-19T11:32:26.435Z,53.32
2023-03-19T11:34:54.417Z,54.06
2023-03-19T11:37:22.779Z,55.80
2023-03-19T11:39:51.084Z,56.26
2023-03-19T11:42:20.173Z,55.01
2023-03-19T11:44:48.234Z,52.00
2023-03-19T11:47:26.652Z,49.79
2023-03-19T11:49:55.843Z,47.60
2023-03-19T11:52:23.874Z,49.38
2023-03-19T11:54:52.028Z,51.76
2023-03-19T11:57:20.462Z,53.12
2023-03-19T11:59:48.343Z,53.97
2023-03-19T12:02:16.727Z,52.84
2023-03-19T12:04:44.605Z,50.07
2023-03-19T12:07:12.533Z,48.87
2023-03-19T12:09:40.444Z,47.60
2023-03-19T12:12:08.664Z,46.71
2023-03-19T12:14:36.955Z,46.12
2023-03-19T12:17:07.333Z,44.62
2023-03-19T12:19:35.780Z,44.16
2023-03-19T12:22:03.490Z,43.83
2023-03-19T12:24:31.380Z,43.07
2023-03-19T12:26:59.506Z,43.14
2023-03-19T12:29:27.514Z,43.57
2023-03-19T12:31:55.755Z,42.81
2023-03-19T12:34:24.229Z,43.46
2023-03-19T12:36:52.104Z,43.91
2023-03-19T12:39:20.229Z,45.18
2023-03-19T12:41:48.761Z,46.51
2023-03-19T12:44:17.733Z,48.57
2023-03-19T12:46:46.166Z,50.28
2023-03-19T12:49:14.162Z,51.45
2023-03-19T12:51:42.537Z,53.25
2023-03-19T12:54:10.397Z,53.85
2023-03-19T12:56:38.643Z,54.71
2023-03-19T12:59:07.683Z,54.94
2023-03-19T13:01:35.676Z,55.42
2023-03-19T13:04:04.180Z,55.09
2023-03-19T13:06:32.541Z,55.41
2023-03-19T13:09:00.330Z,55.66
2023-03-19T13:11:28.347Z,55.41
2023-03-19T13:13:56.224Z,55.85
2023-03-19T13:16:24.460Z,55.93
2023-03-19T13:18:53.138Z,56.08
2023-03-19T13:21:21.470Z,56.25
2023-03-19T13:23:49.228Z,56.75
2023-03-19T13:26:17.333Z,56.76
2023-03-19T13:28:46.726Z,56.80
2023-03-19T13:31:14.605Z,56.42
2023-03-19T13:33:42.826Z,55.40
2023-03-19T13:36:10.688Z,56.06
2023-03-19T13:38:38.514Z,55.88
2023-03-19T13:41:06.704Z,57.13
2023-03-19T13:43:34.544Z,57.78
2023-03-19T13:46:03.581Z,58.51
2023-03-19T13:48:31.650Z,58.21
2023-03-19T13:50:59.374Z,57.89
2023-03-19T13:53:27.520Z,57.84
2023-03-19T13:55:55.539Z,58.49
2023-03-19T13:58:40.868Z,59.01
2023-03-19T14:01:09.066Z,59.40
2023-03-19T14:03:37.454Z,59.90
2023-03-19T14:06:05.665Z,59.87
2023-03-19T14:08:33.959Z,60.31
2023-03-19T14:11:02.577Z,60.33
2023-03-19T14:13:31.619Z,60.93
2023-03-19T14:15:59.901Z,60.64
2023-03-19T14:18:27.724Z,60.64
2023-03-19T14:20:56.045Z,60.54
2023-03-19T14:23:36.098Z,60.39
2023-03-19T14:26:06.748Z,60.19
2023-03-19T14:28:34.675Z,60.15
2023-03-19T14:31:02.867Z,59.66
2023-03-19T14:33:30.970Z,59.94
2023-03-19T14:35:59.005Z,60.21
2023-03-19T14:38:27.076Z,60.32
2023-03-19T14:40:55.015Z,60.39
2023-03-19T14:43:23.107Z,60.03
2023-03-19T14:45:51.410Z,59.51
2023-03-19T14:48:19.285Z,58.20
2023-03-19T14:50:47.266Z,58.47
2023-03-19T14:53:15.143Z,58.04
2023-03-19T14:55:43.065Z,58.86
2023-03-19T14:58:11.575Z,58.55
2023-03-19T15:00:39.391Z,59.00
2023-03-19T15:03:07.609Z,59.66
2023-03-19T15:05:36.687Z,59.59
2023-03-19T15:08:04.728Z,60.07
2023-03-19T15:10:33.072Z,60.22
2023-03-19T15:13:01.281Z,60.85
2023-03-19T15:15:30.875Z,61.55
2023-03-19T15:18:03.770Z,61.66
2023-03-19T15:20:32.298Z,62.40
2023-03-19T15:23:00.090Z,62.76
2023-03-19T15:25:27.918Z,63.02
2023-03-19T15:27:55.942Z,63.52
2023-03-19T15:30:24.772Z,64.06
2023-03-19T15:33:07.821Z,63.61
2023-03-19T15:35:39.564Z,64.26
2023-03-19T15:38:07.363Z,64.37
2023-03-19T15:40:36.877Z,64.61
2023-03-19T15:43:05.131Z,64.34
2023-03-19T15:45:34.059Z,63.88
2023-03-19T15:48:02.747Z,64.77
2023-03-19T15:50:30.707Z,63.91
2023-03-19T15:52:58.558Z,63.44
2023-03-19T15:55:26.626Z,64.10
2023-03-19T15:57:56.567Z,63.79
2023-03-19T16:00:25.149Z,64.05
2023-03-19T16:02:53.054Z,63.66
2023-03-19T16:05:23.059Z,63.05
2023-03-19T16:07:54.792Z,63.43
2023-03-19T16:10:22.727Z,62.76
2023-03-19T16:12:51.630Z,62.66
2023-03-19T16:15:19.842Z,62.65
2023-03-19T16:17:49.542Z,62.59
2023-03-19T16:20:17.547Z,62.34
2023-03-19T16:22:45.443Z,62.37
2023-03-19T16:25:13.835Z,62.86
2023-03-19T16:27:43.242Z,62.93
2023-03-19T16:30:11.215Z,62.89
2023-03-19T16:32:39.388Z,62.72
2023-03-19T16:35:07.361Z,63.38
2023-03-19T16:37:35.553Z,63.27
2023-03-19T16:40:04.944Z,63.42
2023-03-19T16:42:32.803Z,63.71
2023-03-19T16:45:00.755Z,63.47
2023-03-19T16:47:28.800Z,63.84
2023-03-19T16:49:56.638Z,63.80
2023-03-19T16:52:24.528Z,64.24
2023-03-19T16:54:53.161Z,64.26
2023-03-19T16:57:21.131Z,64.42
2023-03-19T16:59:49.000Z,64.53
2023-03-19T17:02:18.667Z,64.54
2023-03-19T17:04:46.753Z,64.25
2023-03-19T17:07:14.584Z,64.61
2023-03-19T17:09:42.650Z,64.81
2023-03-19T17:12:10.607Z,64.51
2023-03-19T17:14:38.990Z,64.82
2023-03-19T17:17:07.075Z,65.35
2023-03-19T17:19:35.303Z,66.43
2023-03-19T17:22:03.371Z,66.17
2023-03-19T17:24:31.526Z,66.17
2023-03-19T17:26:59.982Z,66.69
2023-03-19T17:29:28.007Z,67.26
2023-03-19T17:31:55.940Z,67.04
2023-03-19T17:34:23.890Z,67.11
2023-03-19T17:36:51.774Z,67.94
2023-03-19T17:39:20.556Z,67.30
2023-03-19T17:41:48.419Z,67.79
2023-03-19T17:44:16.588Z,67.85
2023-03-19T17:46:44.543Z,68.36
2023-03-19T17:49:12.606Z,68.01
2023-03-19T17:51:40.717Z,67.78
2023-03-19T17:54:08.800Z,68.45
2023-03-19T17:56:36.695Z,68.63
2023-03-19T17:59:04.524Z,68.49
2023-03-19T18:01:32.582Z,69.18
2023-03-19T18:04:00.979Z,68.64
2023-03-19T18:06:30.754Z,68.96
2023-03-19T18:08:58.828Z,68.96
2023-03-19T18:11:26.659Z,68.89
2023-03-19T18:13:54.638Z,68.73
2023-03-19T18:16:23.148Z,69.07
2023-03-19T18:18:51.177Z,68.87
2023-03-19T18:21:19.014Z,68.85
2023-03-19T18:23:46.972Z,69.02
2023-03-19T18:26:17.237Z,69.15
2023-03-19T18:28:46.310Z,68.98
2023-03-19T18:31:15.129Z,69.07
2023-03-19T18:33:43.015Z,69.27
2023-03-19T18:36:10.972Z,69.14
2023-03-19T18:38:38.876Z,69.31
2023-03-19T18:41:07.234Z,69.39
2023-03-19T18:43:35.071Z,69.22
2023-03-19T18:46:03.448Z,69.10
2023-03-19T18:48:32.203Z,69.25
2023-03-19T18:51:00.382Z,69.67
2023-03-19T18:53:30.526Z,69.19
2023-03-19T18:55:58.783Z,69.55
2023-03-19T18:58:27.085Z,69.38
2023-03-19T19:00:55.358Z,69.38
2023-03-19T19:03:23.556Z,70.05
2023-03-19T19:05:54.622Z,69.56
2023-03-19T19:08:22.893Z,69.51
2023-03-19T19:10:50.946Z,69.67
2023-03-19T19:13:19.287Z,69.65
2023-03-19T19:15:47.293Z,69.38
2023-03-19T19:18:15.595Z,69.39
2023-03-19T19:20:43.413Z,69.67
2023-03-19T19:23:11.648Z,69.58
2023-03-19T19:25:39.632Z,69.22
2023-03-19T19:28:07.571Z,69.21
2023-03-19T19:30:36.279Z,69.17
2023-03-19T19:33:04.951Z,68.68
2023-03-19T19:35:33.493Z,69.06
2023-03-19T19:38:01.556Z,68.74
2023-03-19T19:40:29.384Z,68.93
2023-03-19T19:42:57.841Z,69.09
2023-03-19T19:45:26.233Z,68.53
2023-03-19T19:47:54.123Z,68.91
2023-03-19T19:50:22.357Z,68.96
2023-03-19T19:52:50.325Z,68.86
2023-03-19T19:55:18.467Z,69.04
2023-03-19T19:57:47.981Z,68.93
2023-03-19T20:00:15.988Z,69.25
2023-03-19T20:02:43.871Z,69.35
2023-03-19T20:05:11.629Z,69.27
2023-03-19T20:07:39.664Z,69.29
2023-03-19T20:10:07.577Z,69.19
2023-03-19T20:12:35.508Z,68.71
2023-03-19T20:15:03.535Z,69.03
2023-03-19T20:17:31.318Z,68.85
2023-03-19T20:19:59.311Z,69.39
2023-03-19T20:22:27.568Z,69.11
2023-03-19T20:24:55.349Z,69.22
2023-03-19T20:27:23.256Z,69.50
2023-03-19T20:29:51.682Z,69.29
2023-03-19T20:32:19.480Z,69.42
2023-03-19T20:34:47.397Z,69.42
2023-03-19T20:37:15.402Z,69.43
2023-03-19T20:39:44.406Z,68.97
2023-03-19T20:42:12.159Z,69.60
2023-03-19T20:44:40.699Z,68.94
2023-03-19T20:47:08.696Z,69.20
2023-03-19T20:49:36.423Z,69.32
2023-03-19T20:52:04.474Z,69.34
2023-03-19T20:54:32.329Z,69.15
2023-03-19T20:57:00.493Z,69.08
2023-03-19T20:59:29.261Z,69.08
2023-03-19T21:01:57.753Z,69.45
2023-03-19T21:04:25.691Z,69.32
2023-03-19T21:06:54.486Z,69.20
2023-03-19T21:09:23.128Z,69.26
2023-03-19T21:11:52.415Z,69.27
2023-03-19T21:14:23.637Z,68.82
2023-03-19T21:16:51.345Z,69.07
2023-03-19T21:19:19.129Z,69.61
2023-03-19T21:21:49.244Z,69.66
2023-03-19T21:24:17.787Z,69.25
2023-03-19T21:26:46.465Z,69.06
2023-03-19T21:29:14.352Z,69.18
2023-03-19T21:31:43.012Z,69.76
2023-03-19T21:34:11.587Z,69.43
2023-03-19T21:36:39.851Z,69.88
2023-03-19T21:39:07.678Z,70.21
2023-03-19T21:41:36.331Z,69.64
2023-03-19T21:44:04.760Z,70.39
2023-03-19T21:46:32.833Z,70.01
2023-03-19T21:49:00.650Z,70.54
2023-03-19T21:51:28.861Z,70.47
2023-03-19T21:53:56.645Z,70.61
2023-03-19T21:56:24.695Z,70.74
2023-03-19T21:58:53.181Z,70.65
2023-03-19T22:01:21.317Z,70.49
2023-03-19T22:03:49.237Z,70.89
2023-03-19T22:06:19.364Z,70.51
2023-03-19T22:08:48.353Z,70.93
2023-03-19T22:11:16.510Z,70.34
2023-03-19T22:13:44.865Z,70.35
2023-03-19T22:16:13.055Z,70.76
2023-03-19T22:18:40.842Z,71.11
2023-03-19T22:21:09.493Z,70.52
2023-03-19T22:23:37.744Z,71.00
2023-03-19T22:26:05.689Z,70.63
2023-03-19T22:28:33.872Z,70.86
2023-03-19T22:31:01.995Z,70.55
2023-03-19T22:33:29.765Z,71.07
2023-03-19T22:35:57.844Z,70.73
2023-03-19T22:38:25.646Z,70.83
2023-03-19T22:40:53.342Z,71.05
2023-03-19T22:43:21.174Z,70.56
2023-03-19T22:45:48.930Z,70.84
2023-03-19T22:48:18.122Z,71.07
2023-03-19T22:50:46.002Z,71.28
2023-03-19T22:53:13.680Z,71.18
2023-03-19T22:55:41.682Z,70.99
2023-03-19T22:58:09.627Z,71.14
2023-03-19T23:00:37.766Z,71.15
2023-03-19T23:03:05.496Z,71.42
2023-03-19T23:05:33.679Z,71.37
2023-03-19T23:08:02.314Z,71.48
2023-03-19T23:10:30.833Z,71.25
2023-03-19T23:12:59.295Z,71.07
2023-03-19T23:15:27.237Z,70.95
2023-03-19T23:17:56.021Z,71.69
2023-03-19T23:20:24.060Z,71.63
2023-03-19T23:22:51.672Z,71.21
2023-03-19T23:25:19.327Z,71.59
2023-03-19T23:27:47.021Z,71.73
2023-03-19T23:30:14.623Z,71.52
2023-03-19T23:32:42.678Z,72.10
2023-03-19T23:35:10.815Z,71.90
2023-03-19T23:37:39.411Z,71.59
2023-03-19T23:40:07.301Z,71.63
2023-03-19T23:42:34.981Z,72.02
2023-03-19T23:45:03.883Z,72.55
2023-03-19T23:47:31.817Z,71.91
2023-03-19T23:49:59.498Z,72.09
2023-03-19T23:52:27.268Z,72.12
2023-03-19T23:54:54.899Z,72.06
2023-03-19T23:57:23.170Z,72.25
2023-03-19T23:59:51.085Z,72.57
